sensor_id;sensor_type;location;lat;lon;timestamp;P1;durP1;ratioP1;P2;durP2;ratioP2
72575;SDS011;60613;48.658;2.328;2022-08-01T00:01:52;1.73;;;0.80;;
72575;SDS011;60613;48.658;2.328;2022-08-01T00:04:17;1.93;;;0.90;;
72575;SDS011;60613;48.658;2.328;2022-08-01T00:06:43;1.70;;;0.90;;
72575;SDS011;60613;48.658;2.328;2022-08-01T00:09:08;2.53;;;0.93;;
72575;SDS011;60613;48.658;2.328;2022-08-01T00:11:34;2.17;;;0.80;;
72575;SDS011;60613;48.658;2.328;2022-08-01T00:14:00;2.03;;;1.00;;
72575;SDS011;60613;48.658;2.328;2022-08-01T00:16:25;1.70;;;0.80;;
72575;SDS011;60613;48.658;2.328;2022-08-01T00:18:51;2.08;;;0.80;;
72575;SDS011;60613;48.658;2.328;2022-08-01T00:21:17;2.40;;;0.93;;
72575;SDS011;60613;48.658;2.328;2022-08-01T00:23:43;1.50;;;0.70;;
72575;SDS011;60613;48.658;2.328;2022-08-01T00:26:10;2.42;;;0.90;;
72575;SDS011;60613;48.658;2.328;2022-08-01T00:28:37;1.75;;;0.80;;
72575;SDS011;60613;48.658;2.328;2022-08-01T00:31:03;1.80;;;0.77;;
72575;SDS011;60613;48.658;2.328;2022-08-01T00:33:29;1.58;;;0.80;;
72575;SDS011;60613;48.658;2.328;2022-08-01T00:35:55;2.17;;;0.80;;
72575;SDS011;60613;48.658;2.328;2022-08-01T00:38:21;1.80;;;0.80;;
72575;SDS011;60613;48.658;2.328;2022-08-01T00:40:46;2.03;;;0.90;;
72575;SDS011;60613;48.658;2.328;2022-08-01T00:43:12;1.97;;;0.77;;
72575;SDS011;60613;48.658;2.328;2022-08-01T00:45:38;2.10;;;0.80;;
72575;SDS011;60613;48.658;2.328;2022-08-01T00:48:03;2.30;;;0.90;;
72575;SDS011;60613;48.658;2.328;2022-08-01T00:50:29;1.38;;;0.80;;
72575;SDS011;60613;48.658;2.328;2022-08-01T00:52:55;1.67;;;0.70;;
72575;SDS011;60613;48.658;2.328;2022-08-01T00:55:22;1.93;;;0.97;;
72575;SDS011;60613;48.658;2.328;2022-08-01T00:57:48;2.60;;;0.90;;
72575;SDS011;60613;48.658;2.328;2022-08-01T01:00:14;1.58;;;0.80;;
72575;SDS011;60613;48.658;2.328;2022-08-01T01:02:40;1.50;;;0.70;;
72575;SDS011;60613;48.658;2.328;2022-08-01T01:05:06;2.33;;;0.80;;
72575;SDS011;60613;48.658;2.328;2022-08-01T01:07:34;1.90;;;0.77;;
72575;SDS011;60613;48.658;2.328;2022-08-01T01:10:08;1.20;;;0.70;;
72575;SDS011;60613;48.658;2.328;2022-08-01T01:18:19;2.53;;;0.80;;
72575;SDS011;60613;48.658;2.328;2022-08-01T01:23:40;1.50;;;0.80;;
72575;SDS011;60613;48.658;2.328;2022-08-01T01:31:31;1.45;;;0.80;;
72575;SDS011;60613;48.658;2.328;2022-08-01T01:34:15;1.33;;;0.70;;
72575;SDS011;60613;48.658;2.328;2022-08-01T01:36:44;1.70;;;0.77;;
72575;SDS011;60613;48.658;2.328;2022-08-01T01:39:12;2.00;;;0.80;;
72575;SDS011;60613;48.658;2.328;2022-08-01T01:41:39;1.85;;;0.70;;
72575;SDS011;60613;48.658;2.328;2022-08-01T01:44:06;1.50;;;0.90;;
72575;SDS011;60613;48.658;2.328;2022-08-01T01:46:34;1.50;;;0.70;;
72575;SDS011;60613;48.658;2.328;2022-08-01T01:49:01;2.08;;;0.80;;
72575;SDS011;60613;48.658;2.328;2022-08-01T01:51:27;2.13;;;0.82;;
72575;SDS011;60613;48.658;2.328;2022-08-01T01:53:55;1.83;;;0.70;;
72575;SDS011;60613;48.658;2.328;2022-08-01T01:56:22;1.60;;;0.80;;
72575;SDS011;60613;48.658;2.328;2022-08-01T01:58:50;1.43;;;0.70;;
72575;SDS011;60613;48.658;2.328;2022-08-01T02:01:18;1.75;;;0.70;;
72575;SDS011;60613;48.658;2.328;2022-08-01T02:03:46;1.88;;;0.82;;
72575;SDS011;60613;48.658;2.328;2022-08-01T02:06:13;2.15;;;0.80;;
72575;SDS011;60613;48.658;2.328;2022-08-01T02:08:41;1.40;;;0.73;;
72575;SDS011;60613;48.658;2.328;2022-08-01T02:11:08;1.93;;;0.80;;
72575;SDS011;60613;48.658;2.328;2022-08-01T02:13:43;1.80;;;0.70;;
72575;SDS011;60613;48.658;2.328;2022-08-01T02:16:17;1.80;;;0.80;;
72575;SDS011;60613;48.658;2.328;2022-08-01T02:18:43;1.73;;;0.73;;
72575;SDS011;60613;48.658;2.328;2022-08-01T02:21:10;1.45;;;0.80;;
72575;SDS011;60613;48.658;2.328;2022-08-01T02:23:39;1.67;;;0.73;;
72575;SDS011;60613;48.658;2.328;2022-08-01T02:26:07;2.03;;;0.80;;
72575;SDS011;60613;48.658;2.328;2022-08-01T02:28:49;2.25;;;0.80;;
72575;SDS011;60613;48.658;2.328;2022-08-01T02:31:20;1.50;;;0.80;;
72575;SDS011;60613;48.658;2.328;2022-08-01T02:33:50;1.42;;;0.70;;
72575;SDS011;60613;48.658;2.328;2022-08-01T02:36:21;2.20;;;0.80;;
72575;SDS011;60613;48.658;2.328;2022-08-01T02:38:51;1.20;;;0.70;;
72575;SDS011;60613;48.658;2.328;2022-08-01T02:41:19;1.65;;;0.70;;
72575;SDS011;60613;48.658;2.328;2022-08-01T02:43:47;1.50;;;0.70;;
72575;SDS011;60613;48.658;2.328;2022-08-01T02:46:17;1.80;;;0.80;;
72575;SDS011;60613;48.658;2.328;2022-08-01T02:48:50;1.83;;;0.73;;
72575;SDS011;60613;48.658;2.328;2022-08-01T02:51:17;2.05;;;0.80;;
72575;SDS011;60613;48.658;2.328;2022-08-01T02:53:46;1.83;;;0.80;;
72575;SDS011;60613;48.658;2.328;2022-08-01T02:56:13;1.80;;;0.85;;
72575;SDS011;60613;48.658;2.328;2022-08-01T02:58:42;1.20;;;0.60;;
72575;SDS011;60613;48.658;2.328;2022-08-01T03:01:09;1.63;;;0.80;;
72575;SDS011;60613;48.658;2.328;2022-08-01T03:03:36;1.45;;;0.70;;
72575;SDS011;60613;48.658;2.328;2022-08-01T03:06:02;1.90;;;0.85;;
72575;SDS011;60613;48.658;2.328;2022-08-01T03:08:29;1.30;;;0.65;;
72575;SDS011;60613;48.658;2.328;2022-08-01T03:10:56;1.70;;;0.70;;
72575;SDS011;60613;48.658;2.328;2022-08-01T03:13:24;1.97;;;0.70;;
72575;SDS011;60613;48.658;2.328;2022-08-01T03:15:52;1.02;;;0.60;;
72575;SDS011;60613;48.658;2.328;2022-08-01T03:18:20;1.42;;;0.70;;
72575;SDS011;60613;48.658;2.328;2022-08-01T03:20:49;1.52;;;0.70;;
72575;SDS011;60613;48.658;2.328;2022-08-01T03:23:17;1.52;;;0.77;;
72575;SDS011;60613;48.658;2.328;2022-08-01T03:25:43;1.77;;;0.70;;
72575;SDS011;60613;48.658;2.328;2022-08-01T03:28:12;1.60;;;0.70;;
72575;SDS011;60613;48.658;2.328;2022-08-01T03:30:38;1.95;;;0.70;;
72575;SDS011;60613;48.658;2.328;2022-08-01T03:33:05;1.85;;;0.80;;
72575;SDS011;60613;48.658;2.328;2022-08-01T03:35:37;1.73;;;0.70;;
72575;SDS011;60613;48.658;2.328;2022-08-01T03:38:16;1.43;;;0.70;;
72575;SDS011;60613;48.658;2.328;2022-08-01T03:40:47;1.33;;;0.80;;
72575;SDS011;60613;48.658;2.328;2022-08-01T03:43:26;1.45;;;0.52;;
72575;SDS011;60613;48.658;2.328;2022-08-01T03:45:53;1.75;;;0.80;;
72575;SDS011;60613;48.658;2.328;2022-08-01T03:48:27;2.00;;;0.80;;
72575;SDS011;60613;48.658;2.328;2022-08-01T03:50:55;1.77;;;0.80;;
72575;SDS011;60613;48.658;2.328;2022-08-01T03:53:24;1.77;;;0.75;;
72575;SDS011;60613;48.658;2.328;2022-08-01T03:55:53;1.73;;;0.80;;
72575;SDS011;60613;48.658;2.328;2022-08-01T03:58:21;2.00;;;0.90;;
72575;SDS011;60613;48.658;2.328;2022-08-01T04:00:48;1.45;;;0.70;;
72575;SDS011;60613;48.658;2.328;2022-08-01T04:03:14;1.97;;;0.90;;
72575;SDS011;60613;48.658;2.328;2022-08-01T04:05:43;1.67;;;0.77;;
72575;SDS011;60613;48.658;2.328;2022-08-01T04:08:08;1.33;;;0.70;;
72575;SDS011;60613;48.658;2.328;2022-08-01T04:10:34;2.03;;;0.80;;
72575;SDS011;60613;48.658;2.328;2022-08-01T04:13:01;2.03;;;0.77;;
72575;SDS011;60613;48.658;2.328;2022-08-01T04:15:27;1.08;;;0.68;;
72575;SDS011;60613;48.658;2.328;2022-08-01T04:17:53;1.47;;;0.70;;
72575;SDS011;60613;48.658;2.328;2022-08-01T04:20:19;1.40;;;0.70;;
72575;SDS011;60613;48.658;2.328;2022-08-01T04:22:45;1.90;;;0.68;;
72575;SDS011;60613;48.658;2.328;2022-08-01T04:25:12;1.70;;;0.80;;
72575;SDS011;60613;48.658;2.328;2022-08-01T04:27:59;0.87;;;0.53;;
72575;SDS011;60613;48.658;2.328;2022-08-01T04:30:29;1.20;;;0.60;;
72575;SDS011;60613;48.658;2.328;2022-08-01T04:32:59;1.52;;;0.70;;
72575;SDS011;60613;48.658;2.328;2022-08-01T04:35:26;1.75;;;0.73;;
72575;SDS011;60613;48.658;2.328;2022-08-01T04:37:53;2.28;;;0.85;;
72575;SDS011;60613;48.658;2.328;2022-08-01T04:40:19;1.30;;;0.67;;
72575;SDS011;60613;48.658;2.328;2022-08-01T04:42:47;1.27;;;0.70;;
72575;SDS011;60613;48.658;2.328;2022-08-01T04:45:13;2.30;;;0.80;;
72575;SDS011;60613;48.658;2.328;2022-08-01T04:47:40;1.88;;;0.80;;
72575;SDS011;60613;48.658;2.328;2022-08-01T04:50:06;2.15;;;0.70;;
72575;SDS011;60613;48.658;2.328;2022-08-01T04:52:36;1.30;;;0.60;;
72575;SDS011;60613;48.658;2.328;2022-08-01T04:55:03;1.63;;;0.80;;
72575;SDS011;60613;48.658;2.328;2022-08-01T04:57:31;1.50;;;0.70;;
72575;SDS011;60613;48.658;2.328;2022-08-01T05:00:01;1.52;;;0.70;;
72575;SDS011;60613;48.658;2.328;2022-08-01T05:02:28;1.95;;;0.70;;
72575;SDS011;60613;48.658;2.328;2022-08-01T05:04:54;2.40;;;0.87;;
72575;SDS011;60613;48.658;2.328;2022-08-01T05:07:22;1.40;;;0.70;;
72575;SDS011;60613;48.658;2.328;2022-08-01T05:09:48;1.70;;;0.67;;
72575;SDS011;60613;48.658;2.328;2022-08-01T05:12:13;1.30;;;0.70;;
72575;SDS011;60613;48.658;2.328;2022-08-01T05:14:39;2.13;;;0.80;;
72575;SDS011;60613;48.658;2.328;2022-08-01T05:17:06;1.67;;;0.70;;
72575;SDS011;60613;48.658;2.328;2022-08-01T05:19:33;1.00;;;0.50;;
72575;SDS011;60613;48.658;2.328;2022-08-01T05:22:02;1.67;;;0.70;;
72575;SDS011;60613;48.658;2.328;2022-08-01T05:24:30;1.40;;;0.80;;
72575;SDS011;60613;48.658;2.328;2022-08-01T05:26:57;1.85;;;0.70;;
72575;SDS011;60613;48.658;2.328;2022-08-01T05:29:23;1.58;;;0.63;;
72575;SDS011;60613;48.658;2.328;2022-08-01T05:31:49;1.58;;;0.60;;
72575;SDS011;60613;48.658;2.328;2022-08-01T05:34:15;1.57;;;0.60;;
72575;SDS011;60613;48.658;2.328;2022-08-01T05:36:41;1.20;;;0.68;;
72575;SDS011;60613;48.658;2.328;2022-08-01T05:39:07;2.35;;;0.95;;
72575;SDS011;60613;48.658;2.328;2022-08-01T05:41:32;1.00;;;0.60;;
72575;SDS011;60613;48.658;2.328;2022-08-01T05:43:58;1.58;;;0.63;;
72575;SDS011;60613;48.658;2.328;2022-08-01T05:46:24;1.98;;;0.80;;
72575;SDS011;60613;48.658;2.328;2022-08-01T05:48:50;1.43;;;0.67;;
72575;SDS011;60613;48.658;2.328;2022-08-01T05:51:15;1.58;;;0.70;;
72575;SDS011;60613;48.658;2.328;2022-08-01T05:53:41;1.87;;;0.80;;
72575;SDS011;60613;48.658;2.328;2022-08-01T05:56:06;1.48;;;0.70;;
72575;SDS011;60613;48.658;2.328;2022-08-01T05:58:32;1.40;;;0.70;;
72575;SDS011;60613;48.658;2.328;2022-08-01T06:00:58;1.17;;;0.70;;
72575;SDS011;60613;48.658;2.328;2022-08-01T06:03:24;1.30;;;0.68;;
72575;SDS011;60613;48.658;2.328;2022-08-01T06:05:51;1.20;;;0.50;;
72575;SDS011;60613;48.658;2.328;2022-08-01T06:08:16;1.70;;;0.90;;
72575;SDS011;60613;48.658;2.328;2022-08-01T06:10:42;1.37;;;0.70;;
72575;SDS011;60613;48.658;2.328;2022-08-01T06:13:08;1.40;;;0.60;;
72575;SDS011;60613;48.658;2.328;2022-08-01T06:15:33;2.07;;;0.80;;
72575;SDS011;60613;48.658;2.328;2022-08-01T06:17:59;2.03;;;0.80;;
72575;SDS011;60613;48.658;2.328;2022-08-01T06:20:25;1.48;;;0.70;;
72575;SDS011;60613;48.658;2.328;2022-08-01T06:22:50;1.30;;;0.63;;
72575;SDS011;60613;48.658;2.328;2022-08-01T06:25:17;1.83;;;0.80;;
72575;SDS011;60613;48.658;2.328;2022-08-01T06:27:43;1.30;;;0.80;;
72575;SDS011;60613;48.658;2.328;2022-08-01T06:30:09;2.40;;;0.70;;
72575;SDS011;60613;48.658;2.328;2022-08-01T06:32:35;1.70;;;0.70;;
72575;SDS011;60613;48.658;2.328;2022-08-01T06:35:01;1.67;;;0.77;;
72575;SDS011;60613;48.658;2.328;2022-08-01T06:37:30;1.77;;;0.70;;
72575;SDS011;60613;48.658;2.328;2022-08-01T06:40:06;1.40;;;0.70;;
72575;SDS011;60613;48.658;2.328;2022-08-01T06:42:34;1.05;;;0.63;;
72575;SDS011;60613;48.658;2.328;2022-08-01T06:45:09;1.42;;;0.70;;
72575;SDS011;60613;48.658;2.328;2022-08-01T06:47:37;1.30;;;0.60;;
72575;SDS011;60613;48.658;2.328;2022-08-01T06:50:03;1.60;;;0.60;;
72575;SDS011;60613;48.658;2.328;2022-08-01T06:52:30;1.15;;;0.60;;
72575;SDS011;60613;48.658;2.328;2022-08-01T06:54:56;1.20;;;0.63;;
72575;SDS011;60613;48.658;2.328;2022-08-01T06:57:21;1.43;;;0.60;;
72575;SDS011;60613;48.658;2.328;2022-08-01T06:59:47;1.10;;;0.60;;
72575;SDS011;60613;48.658;2.328;2022-08-01T07:02:13;1.90;;;0.80;;
72575;SDS011;60613;48.658;2.328;2022-08-01T07:04:39;1.10;;;0.60;;
72575;SDS011;60613;48.658;2.328;2022-08-01T07:07:05;1.25;;;0.70;;
72575;SDS011;60613;48.658;2.328;2022-08-01T07:09:30;1.17;;;0.63;;
72575;SDS011;60613;48.658;2.328;2022-08-01T07:11:56;1.90;;;0.70;;
72575;SDS011;60613;48.658;2.328;2022-08-01T07:14:22;1.40;;;0.70;;
72575;SDS011;60613;48.658;2.328;2022-08-01T07:16:48;1.80;;;0.80;;
72575;SDS011;60613;48.658;2.328;2022-08-01T07:19:14;1.60;;;0.70;;
72575;SDS011;60613;48.658;2.328;2022-08-01T07:21:39;1.67;;;0.70;;
72575;SDS011;60613;48.658;2.328;2022-08-01T07:24:05;2.00;;;0.70;;
72575;SDS011;60613;48.658;2.328;2022-08-01T07:26:33;1.27;;;0.60;;
72575;SDS011;60613;48.658;2.328;2022-08-01T07:28:59;1.13;;;0.57;;
72575;SDS011;60613;48.658;2.328;2022-08-01T07:31:24;1.65;;;0.60;;
72575;SDS011;60613;48.658;2.328;2022-08-01T07:33:50;1.53;;;0.70;;
72575;SDS011;60613;48.658;2.328;2022-08-01T07:36:16;2.00;;;0.80;;
72575;SDS011;60613;48.658;2.328;2022-08-01T07:38:42;2.05;;;0.80;;
72575;SDS011;60613;48.658;2.328;2022-08-01T07:41:08;1.50;;;0.63;;
72575;SDS011;60613;48.658;2.328;2022-08-01T07:43:34;1.85;;;0.70;;
72575;SDS011;60613;48.658;2.328;2022-08-01T07:46:01;1.25;;;0.60;;
72575;SDS011;60613;48.658;2.328;2022-08-01T07:48:27;1.60;;;0.70;;
72575;SDS011;60613;48.658;2.328;2022-08-01T07:50:53;1.47;;;0.70;;
72575;SDS011;60613;48.658;2.328;2022-08-01T07:53:19;1.30;;;0.60;;
72575;SDS011;60613;48.658;2.328;2022-08-01T07:55:45;1.48;;;0.70;;
72575;SDS011;60613;48.658;2.328;2022-08-01T07:58:11;2.30;;;0.70;;
72575;SDS011;60613;48.658;2.328;2022-08-01T08:00:36;1.80;;;0.70;;
72575;SDS011;60613;48.658;2.328;2022-08-01T08:03:02;0.83;;;0.50;;
72575;SDS011;60613;48.658;2.328;2022-08-01T08:05:28;0.90;;;0.60;;
72575;SDS011;60613;48.658;2.328;2022-08-01T08:07:54;1.23;;;0.70;;
72575;SDS011;60613;48.658;2.328;2022-08-01T08:10:20;1.07;;;0.60;;
72575;SDS011;60613;48.658;2.328;2022-08-01T08:12:46;1.45;;;0.65;;
72575;SDS011;60613;48.658;2.328;2022-08-01T08:15:13;1.83;;;0.70;;
72575;SDS011;60613;48.658;2.328;2022-08-01T08:17:39;1.87;;;0.70;;
72575;SDS011;60613;48.658;2.328;2022-08-01T08:20:05;1.23;;;0.60;;
72575;SDS011;60613;48.658;2.328;2022-08-01T08:22:32;1.30;;;0.60;;
72575;SDS011;60613;48.658;2.328;2022-08-01T08:24:58;0.93;;;0.60;;
72575;SDS011;60613;48.658;2.328;2022-08-01T08:27:24;1.80;;;0.70;;
72575;SDS011;60613;48.658;2.328;2022-08-01T08:29:50;1.58;;;0.70;;
72575;SDS011;60613;48.658;2.328;2022-08-01T08:32:16;1.37;;;0.70;;
72575;SDS011;60613;48.658;2.328;2022-08-01T08:34:41;2.15;;;0.80;;
72575;SDS011;60613;48.658;2.328;2022-08-01T08:37:07;2.37;;;0.70;;
72575;SDS011;60613;48.658;2.328;2022-08-01T08:39:33;1.25;;;0.60;;
72575;SDS011;60613;48.658;2.328;2022-08-01T08:41:59;2.30;;;0.73;;
72575;SDS011;60613;48.658;2.328;2022-08-01T08:44:25;1.80;;;0.70;;
72575;SDS011;60613;48.658;2.328;2022-08-01T08:46:51;1.20;;;0.60;;
72575;SDS011;60613;48.658;2.328;2022-08-01T08:49:19;1.27;;;0.67;;
72575;SDS011;60613;48.658;2.328;2022-08-01T08:51:47;2.13;;;0.60;;
72575;SDS011;60613;48.658;2.328;2022-08-01T08:54:14;1.60;;;0.70;;
72575;SDS011;60613;48.658;2.328;2022-08-01T08:56:40;1.70;;;0.70;;
72575;SDS011;60613;48.658;2.328;2022-08-01T08:59:08;1.10;;;0.55;;
72575;SDS011;60613;48.658;2.328;2022-08-01T09:01:34;1.87;;;0.60;;
72575;SDS011;60613;48.658;2.328;2022-08-01T09:04:00;1.25;;;0.63;;
72575;SDS011;60613;48.658;2.328;2022-08-01T09:06:27;1.67;;;0.77;;
72575;SDS011;60613;48.658;2.328;2022-08-01T09:08:54;2.25;;;0.75;;
72575;SDS011;60613;48.658;2.328;2022-08-01T09:11:20;2.22;;;0.60;;
72575;SDS011;60613;48.658;2.328;2022-08-01T09:14:06;1.20;;;0.60;;
72575;SDS011;60613;48.658;2.328;2022-08-01T09:16:36;1.60;;;0.70;;
72575;SDS011;60613;48.658;2.328;2022-08-01T09:19:09;1.33;;;0.63;;
72575;SDS011;60613;48.658;2.328;2022-08-01T09:21:58;1.30;;;0.70;;
72575;SDS011;60613;48.658;2.328;2022-08-01T09:24:26;1.65;;;0.70;;
72575;SDS011;60613;48.658;2.328;2022-08-01T09:26:53;2.10;;;0.70;;
72575;SDS011;60613;48.658;2.328;2022-08-01T09:29:23;2.22;;;0.90;;
72575;SDS011;60613;48.658;2.328;2022-08-01T09:31:56;1.40;;;0.65;;
72575;SDS011;60613;48.658;2.328;2022-08-01T09:34:28;2.33;;;0.80;;
72575;SDS011;60613;48.658;2.328;2022-08-01T09:36:56;2.50;;;0.90;;
72575;SDS011;60613;48.658;2.328;2022-08-01T09:39:30;1.97;;;0.80;;
72575;SDS011;60613;48.658;2.328;2022-08-01T09:41:59;1.55;;;0.73;;
72575;SDS011;60613;48.658;2.328;2022-08-01T09:44:43;2.03;;;0.90;;
72575;SDS011;60613;48.658;2.328;2022-08-01T09:47:10;2.10;;;0.88;;
72575;SDS011;60613;48.658;2.328;2022-08-01T09:49:37;1.92;;;0.80;;
72575;SDS011;60613;48.658;2.328;2022-08-01T09:52:14;1.90;;;0.80;;
72575;SDS011;60613;48.658;2.328;2022-08-01T09:54:42;1.83;;;0.80;;
72575;SDS011;60613;48.658;2.328;2022-08-01T09:57:16;2.30;;;0.82;;
72575;SDS011;60613;48.658;2.328;2022-08-01T09:59:44;2.38;;;0.90;;
72575;SDS011;60613;48.658;2.328;2022-08-01T10:02:12;2.38;;;0.90;;
72575;SDS011;60613;48.658;2.328;2022-08-01T10:04:49;2.30;;;0.93;;
72575;SDS011;60613;48.658;2.328;2022-08-01T10:07:16;1.85;;;0.80;;
72575;SDS011;60613;48.658;2.328;2022-08-01T10:09:43;2.50;;;0.90;;
72575;SDS011;60613;48.658;2.328;2022-08-01T10:12:10;2.03;;;0.80;;
72575;SDS011;60613;48.658;2.328;2022-08-01T10:14:37;2.25;;;1.00;;
72575;SDS011;60613;48.658;2.328;2022-08-01T10:17:04;2.17;;;0.90;;
72575;SDS011;60613;48.658;2.328;2022-08-01T10:19:35;2.50;;;1.00;;
72575;SDS011;60613;48.658;2.328;2022-08-01T10:22:03;2.58;;;0.93;;
72575;SDS011;60613;48.658;2.328;2022-08-01T10:24:32;1.80;;;0.82;;
72575;SDS011;60613;48.658;2.328;2022-08-01T10:27:09;2.20;;;1.00;;
72575;SDS011;60613;48.658;2.328;2022-08-01T10:29:49;2.80;;;1.10;;
72575;SDS011;60613;48.658;2.328;2022-08-01T10:32:19;2.63;;;0.90;;
72575;SDS011;60613;48.658;2.328;2022-08-01T10:34:46;2.42;;;0.90;;
72575;SDS011;60613;48.658;2.328;2022-08-01T10:37:17;2.10;;;1.00;;
72575;SDS011;60613;48.658;2.328;2022-08-01T10:39:43;2.60;;;1.00;;
72575;SDS011;60613;48.658;2.328;2022-08-01T10:42:10;2.00;;;0.90;;
72575;SDS011;60613;48.658;2.328;2022-08-01T10:44:36;2.45;;;0.90;;
72575;SDS011;60613;48.658;2.328;2022-08-01T10:47:10;2.38;;;0.90;;
72575;SDS011;60613;48.658;2.328;2022-08-01T10:52:29;2.50;;;0.93;;
72575;SDS011;60613;48.658;2.328;2022-08-01T10:55:04;1.93;;;0.80;;
72575;SDS011;60613;48.658;2.328;2022-08-01T10:57:43;2.47;;;0.98;;
72575;SDS011;60613;48.658;2.328;2022-08-01T11:00:15;2.75;;;1.10;;
72575;SDS011;60613;48.658;2.328;2022-08-01T11:02:44;2.47;;;1.05;;
72575;SDS011;60613;48.658;2.328;2022-08-01T11:05:26;2.47;;;0.98;;
72575;SDS011;60613;48.658;2.328;2022-08-01T11:07:55;1.87;;;0.80;;
72575;SDS011;60613;48.658;2.328;2022-08-01T11:13:02;2.25;;;1.00;;
72575;SDS011;60613;48.658;2.328;2022-08-01T11:15:32;2.60;;;0.88;;
72575;SDS011;60613;48.658;2.328;2022-08-01T11:18:01;2.47;;;0.93;;
72575;SDS011;60613;48.658;2.328;2022-08-01T11:20:57;2.07;;;1.00;;
72575;SDS011;60613;48.658;2.328;2022-08-01T11:23:27;2.05;;;0.80;;
72575;SDS011;60613;48.658;2.328;2022-08-01T11:28:20;2.63;;;1.00;;
72575;SDS011;60613;48.658;2.328;2022-08-01T11:30:51;2.05;;;0.90;;
72575;SDS011;60613;48.658;2.328;2022-08-01T11:33:47;1.65;;;0.80;;
72575;SDS011;60613;48.658;2.328;2022-08-01T11:38:37;2.67;;;1.00;;
72575;SDS011;60613;48.658;2.328;2022-08-01T11:43:54;2.10;;;0.90;;
72575;SDS011;60613;48.658;2.328;2022-08-01T11:52:11;2.03;;;0.90;;
72575;SDS011;60613;48.658;2.328;2022-08-01T11:54:43;2.13;;;0.90;;
72575;SDS011;60613;48.658;2.328;2022-08-01T11:57:22;2.33;;;1.00;;
72575;SDS011;60613;48.658;2.328;2022-08-01T11:59:52;2.50;;;0.95;;
72575;SDS011;60613;48.658;2.328;2022-08-01T12:05:08;2.03;;;0.90;;
72575;SDS011;60613;48.658;2.328;2022-08-01T12:07:37;1.77;;;0.80;;
72575;SDS011;60613;48.658;2.328;2022-08-01T12:10:04;2.05;;;1.00;;
72575;SDS011;60613;48.658;2.328;2022-08-01T12:12:35;3.15;;;1.02;;
72575;SDS011;60613;48.658;2.328;2022-08-01T12:15:07;2.38;;;1.00;;
72575;SDS011;60613;48.658;2.328;2022-08-01T12:17:35;2.40;;;1.00;;
72575;SDS011;60613;48.658;2.328;2022-08-01T12:20:20;3.03;;;0.90;;
72575;SDS011;60613;48.658;2.328;2022-08-01T12:22:47;3.63;;;1.10;;
72575;SDS011;60613;48.658;2.328;2022-08-01T12:25:17;2.65;;;1.00;;
72575;SDS011;60613;48.658;2.328;2022-08-01T12:27:43;2.22;;;1.00;;
72575;SDS011;60613;48.658;2.328;2022-08-01T12:30:11;2.50;;;0.90;;
72575;SDS011;60613;48.658;2.328;2022-08-01T12:32:40;2.78;;;1.00;;
72575;SDS011;60613;48.658;2.328;2022-08-01T12:35:09;2.90;;;1.13;;
72575;SDS011;60613;48.658;2.328;2022-08-01T12:37:48;2.42;;;1.00;;
72575;SDS011;60613;48.658;2.328;2022-08-01T12:40:16;2.58;;;1.00;;
72575;SDS011;60613;48.658;2.328;2022-08-01T12:42:43;2.77;;;1.03;;
72575;SDS011;60613;48.658;2.328;2022-08-01T12:45:13;2.45;;;1.02;;
72575;SDS011;60613;48.658;2.328;2022-08-01T12:47:40;2.60;;;1.10;;
72575;SDS011;60613;48.658;2.328;2022-08-01T12:50:08;2.60;;;1.00;;
72575;SDS011;60613;48.658;2.328;2022-08-01T12:52:40;3.00;;;0.90;;
72575;SDS011;60613;48.658;2.328;2022-08-01T12:57:40;2.45;;;0.90;;
72575;SDS011;60613;48.658;2.328;2022-08-01T13:00:22;2.95;;;1.00;;
72575;SDS011;60613;48.658;2.328;2022-08-01T13:03:00;2.97;;;1.00;;
72575;SDS011;60613;48.658;2.328;2022-08-01T13:05:26;2.30;;;1.00;;
72575;SDS011;60613;48.658;2.328;2022-08-01T13:07:52;3.33;;;1.10;;
72575;SDS011;60613;48.658;2.328;2022-08-01T13:10:27;2.05;;;0.98;;
72575;SDS011;60613;48.658;2.328;2022-08-01T13:12:55;2.35;;;0.90;;
72575;SDS011;60613;48.658;2.328;2022-08-01T13:15:25;2.50;;;1.10;;
72575;SDS011;60613;48.658;2.328;2022-08-01T13:17:55;1.98;;;0.95;;
72575;SDS011;60613;48.658;2.328;2022-08-01T13:20:21;1.92;;;0.90;;
72575;SDS011;60613;48.658;2.328;2022-08-01T13:22:51;2.87;;;1.03;;
72575;SDS011;60613;48.658;2.328;2022-08-01T13:25:17;2.55;;;1.00;;
72575;SDS011;60613;48.658;2.328;2022-08-01T13:27:43;2.50;;;1.00;;
72575;SDS011;60613;48.658;2.328;2022-08-01T13:32:41;2.15;;;0.90;;
72575;SDS011;60613;48.658;2.328;2022-08-01T13:35:09;1.80;;;0.90;;
72575;SDS011;60613;48.658;2.328;2022-08-01T13:37:40;1.80;;;0.80;;
72575;SDS011;60613;48.658;2.328;2022-08-01T13:40:07;3.33;;;1.10;;
72575;SDS011;60613;48.658;2.328;2022-08-01T13:42:33;2.08;;;0.90;;
72575;SDS011;60613;48.658;2.328;2022-08-01T13:44:59;2.95;;;1.00;;
72575;SDS011;60613;48.658;2.328;2022-08-01T13:47:25;2.70;;;1.00;;
72575;SDS011;60613;48.658;2.328;2022-08-01T13:49:51;1.88;;;0.90;;
72575;SDS011;60613;48.658;2.328;2022-08-01T13:52:17;3.03;;;1.10;;
72575;SDS011;60613;48.658;2.328;2022-08-01T13:54:42;2.88;;;1.00;;
72575;SDS011;60613;48.658;2.328;2022-08-01T13:57:08;2.23;;;1.10;;
72575;SDS011;60613;48.658;2.328;2022-08-01T13:59:34;2.25;;;0.95;;
72575;SDS011;60613;48.658;2.328;2022-08-01T14:02:00;2.72;;;1.15;;
72575;SDS011;60613;48.658;2.328;2022-08-01T14:04:26;2.17;;;1.00;;
72575;SDS011;60613;48.658;2.328;2022-08-01T14:06:51;2.67;;;1.10;;
72575;SDS011;60613;48.658;2.328;2022-08-01T14:09:17;1.87;;;0.90;;
72575;SDS011;60613;48.658;2.328;2022-08-01T14:11:44;2.72;;;1.20;;
72575;SDS011;60613;48.658;2.328;2022-08-01T14:14:10;2.05;;;0.90;;
72575;SDS011;60613;48.658;2.328;2022-08-01T14:16:36;2.50;;;0.93;;
72575;SDS011;60613;48.658;2.328;2022-08-01T14:19:02;2.45;;;1.08;;
72575;SDS011;60613;48.658;2.328;2022-08-01T14:21:28;2.30;;;1.02;;
72575;SDS011;60613;48.658;2.328;2022-08-01T14:23:54;2.10;;;0.90;;
72575;SDS011;60613;48.658;2.328;2022-08-01T14:26:19;2.38;;;0.90;;
72575;SDS011;60613;48.658;2.328;2022-08-01T14:28:45;3.10;;;1.10;;
72575;SDS011;60613;48.658;2.328;2022-08-01T14:31:11;2.30;;;1.00;;
72575;SDS011;60613;48.658;2.328;2022-08-01T14:33:36;2.07;;;1.00;;
72575;SDS011;60613;48.658;2.328;2022-08-01T14:36:02;2.55;;;1.00;;
72575;SDS011;60613;48.658;2.328;2022-08-01T14:38:28;1.63;;;0.85;;
72575;SDS011;60613;48.658;2.328;2022-08-01T14:40:54;2.27;;;0.93;;
72575;SDS011;60613;48.658;2.328;2022-08-01T14:43:20;1.75;;;0.88;;
72575;SDS011;60613;48.658;2.328;2022-08-01T14:45:46;1.80;;;0.88;;
72575;SDS011;60613;48.658;2.328;2022-08-01T14:48:15;1.90;;;0.90;;
72575;SDS011;60613;48.658;2.328;2022-08-01T14:50:41;2.35;;;0.90;;
72575;SDS011;60613;48.658;2.328;2022-08-01T14:53:07;2.22;;;0.88;;
72575;SDS011;60613;48.658;2.328;2022-08-01T14:55:32;1.63;;;0.80;;
72575;SDS011;60613;48.658;2.328;2022-08-01T14:57:58;2.45;;;0.90;;
72575;SDS011;60613;48.658;2.328;2022-08-01T15:00:24;2.17;;;0.93;;
72575;SDS011;60613;48.658;2.328;2022-08-01T15:02:49;2.85;;;1.00;;
72575;SDS011;60613;48.658;2.328;2022-08-01T15:05:15;2.13;;;0.97;;
72575;SDS011;60613;48.658;2.328;2022-08-01T15:07:41;2.25;;;0.90;;
72575;SDS011;60613;48.658;2.328;2022-08-01T15:10:07;2.33;;;1.00;;
72575;SDS011;60613;48.658;2.328;2022-08-01T15:12:33;2.58;;;1.00;;
72575;SDS011;60613;48.658;2.328;2022-08-01T15:15:01;2.33;;;1.10;;
72575;SDS011;60613;48.658;2.328;2022-08-01T15:17:28;3.00;;;1.20;;
72575;SDS011;60613;48.658;2.328;2022-08-01T15:19:57;3.13;;;1.20;;
72575;SDS011;60613;48.658;2.328;2022-08-01T15:22:24;4.57;;;1.52;;
72575;SDS011;60613;48.658;2.328;2022-08-01T15:24:51;4.25;;;1.40;;
72575;SDS011;60613;48.658;2.328;2022-08-01T15:27:18;4.25;;;1.58;;
72575;SDS011;60613;48.658;2.328;2022-08-01T15:29:44;4.00;;;1.50;;
72575;SDS011;60613;48.658;2.328;2022-08-01T15:32:10;4.57;;;1.50;;
72575;SDS011;60613;48.658;2.328;2022-08-01T15:34:37;4.60;;;1.50;;